Time;durP1;ratioP1;P1;durP2;ratioP2;P2;SDS_P1;SDS_P2;PMS_P1;PMS_P2;Temp;Humidity;BMP_temperature;BMP_pressure;BME280_temperature;BME280_humidity;BME280_pressure;Samples;Min_cycle;Max_cycle;Signal;HPM_P1;HPM_P2
2022/12/21 00:01:59;;;;;;;0.00;0.00;;;6.20;99.90;;;;;;5051484;28;20601;-63
2022/12/21 00:04:26;;;;;;;0.00;0.00;;;6.10;99.90;;;;;;5051456;28;20264;-63
2022/12/21 00:06:51;;;;;;;0.65;0.38;;;6.10;99.90;;;;;;5051071;28;20222;-63
2022/12/21 00:09:17;;;;;;;0.00;0.00;;;6.10;99.90;;;;;;5051230;28;20205;-63
2022/12/21 00:11:43;;;;;;;0.20;0.20;;;6.10;99.90;;;;;;5051208;28;20715;-63
2022/12/21 00:14:09;;;;;;;0.20;0.20;;;6.10;99.90;;;;;;5051297;28;20174;-63
2022/12/21 00:16:37;;;;;;;0.00;0.00;;;6.10;99.90;;;;;;5046740;28;20182;-63
2022/12/21 00:19:03;;;;;;;0.35;0.35;;;6.10;99.90;;;;;;5037489;28;20716;-63
2022/12/21 00:21:32;;;;;;;0.13;0.13;;;6.10;99.90;;;;;;5051443;28;20174;-63
2022/12/21 00:23:58;;;;;;;0.00;0.00;;;6.10;99.90;;;;;;5049558;28;20224;-63
2022/12/21 00:26:25;;;;;;;0.45;0.45;;;6.10;99.90;;;;;;5050208;28;20181;-64
2022/12/21 00:28:53;;;;;;;0.45;0.45;;;6.10;99.90;;;;;;5051134;28;20344;-63
2022/12/21 00:31:23;;;;;;;1.08;1.08;;;6.10;99.90;;;;;;5051786;28;20213;-63
2022/12/21 00:33:49;;;;;;;0.63;0.60;;;6.10;99.90;;;;;;5053650;28;20235;-63
2022/12/21 00:36:16;;;;;;;0.30;0.28;;;6.10;99.90;;;;;;5055143;28;20185;-63
2022/12/21 00:38:42;;;;;;;0.35;0.35;;;6.10;99.90;;;;;;5054813;28;20529;-63
2022/12/21 00:41:12;;;;;;;0.05;0.05;;;6.10;99.90;;;;;;5054942;28;20724;-64
2022/12/21 00:43:39;;;;;;;0.17;0.17;;;6.00;99.90;;;;;;5054833;28;20169;-63
2022/12/21 00:46:05;;;;;;;0.10;0.10;;;6.00;99.90;;;;;;5054812;28;20238;-63
2022/12/21 00:48:32;;;;;;;0.45;0.45;;;6.00;99.90;;;;;;5054538;28;20268;-63
2022/12/21 00:51:05;;;;;;;0.20;0.20;;;6.10;99.90;;;;;;5054591;28;20304;-63
2022/12/21 00:53:30;;;;;;;0.10;0.10;;;6.10;99.90;;;;;;5054611;28;20231;-64
2022/12/21 00:55:58;;;;;;;2.08;0.47;;;6.10;99.90;;;;;;5054201;28;20186;-63
2022/12/21 00:58:25;;;;;;;0.17;0.17;;;6.10;99.90;;;;;;5055612;28;20595;-63
2022/12/21 01:00:58;;;;;;;0.75;0.40;;;6.10;99.90;;;;;;5053992;28;20208;-64
2022/12/21 01:03:25;;;;;;;0.30;0.30;;;6.10;99.90;;;;;;5034952;28;20261;-63
2022/12/21 01:05:52;;;;;;;0.85;0.28;;;6.10;99.90;;;;;;5054227;28;20186;-63
2022/12/21 01:08:19;;;;;;;0.10;0.10;;;6.10;99.90;;;;;;5053475;28;20247;-63
2022/12/21 01:10:45;;;;;;;0.10;0.10;;;6.10;99.90;;;;;;5054033;28;20252;-64
2022/12/21 01:13:13;;;;;;;0.38;0.38;;;6.00;99.90;;;;;;5052529;28;20193;-64
2022/12/21 01:15:42;;;;;;;0.08;0.08;;;6.00;99.90;;;;;;5053870;28;20680;-63
2022/12/21 01:18:09;;;;;;;0.00;0.00;;;6.00;99.90;;;;;;5053901;28;20231;-63
2022/12/21 01:20:39;;;;;;;0.20;0.10;;;6.10;99.90;;;;;;5054226;28;20174;-64
2022/12/21 01:23:05;;;;;;;0.00;0.00;;;6.10;99.90;;;;;;5054257;28;20177;-63
2022/12/21 01:25:31;;;;;;;0.20;0.20;;;6.10;99.90;;;;;;5053868;28;20243;-64
2022/12/21 01:27:57;;;;;;;0.10;0.10;;;6.10;99.90;;;;;;5053557;28;20174;-63
2022/12/21 01:30:22;;;;;;;0.00;0.00;;;6.10;99.90;;;;;;5053952;28;20215;-63
2022/12/21 01:32:48;;;;;;;0.03;0.03;;;6.20;99.90;;;;;;5053893;28;20559;-63
2022/12/21 01:35:13;;;;;;;0.55;0.55;;;6.20;99.90;;;;;;5053478;28;21409;-63
2022/12/21 01:37:39;;;;;;;0.00;0.00;;;6.20;99.90;;;;;;5053761;28;20551;-63
2022/12/21 01:40:05;;;;;;;0.40;0.40;;;6.20;99.90;;;;;;5052298;28;20212;-63
2022/12/21 01:42:30;;;;;;;0.22;0.22;;;6.20;99.90;;;;;;5052925;28;20185;-63
2022/12/21 01:45:14;;;;;;;0.13;0.13;;;6.20;99.90;;;;;;5051540;28;20189;-63
2022/12/21 01:47:46;;;;;;;0.00;0.00;;;6.20;99.90;;;;;;5053312;28;20610;-64
2022/12/21 01:50:34;;;;;;;0.75;0.75;;;6.20;99.90;;;;;;5052847;28;20553;-63
2022/12/21 01:53:11;;;;;;;0.10;0.10;;;6.20;99.90;;;;;;5052802;28;20198;-64
2022/12/21 01:55:38;;;;;;;0.00;0.00;;;6.20;99.90;;;;;;5047618;28;20181;-63
2022/12/21 01:58:06;;;;;;;0.10;0.10;;;6.20;99.90;;;;;;5053114;28;20272;-64
2022/12/21 02:00:32;;;;;;;0.00;0.00;;;6.20;99.90;;;;;;5052848;28;20668;-63
2022/12/21 02:03:02;;;;;;;0.10;0.10;;;6.20;99.90;;;;;;5053320;28;20224;-64
2022/12/21 02:05:36;;;;;;;0.10;0.10;;;6.20;99.90;;;;;;5052948;28;20204;-63
2022/12/21 02:08:03;;;;;;;0.10;0.10;;;6.20;99.90;;;;;;5053222;28;20193;-63
2022/12/21 02:10:29;;;;;;;0.10;0.10;;;6.20;99.90;;;;;;5053373;28;20224;-64
2022/12/21 02:13:03;;;;;;;0.00;0.00;;;6.20;99.90;;;;;;5052763;28;20689;-63
2022/12/21 02:15:43;;;;;;;0.20;0.20;;;6.20;99.90;;;;;;5045625;28;20267;-64
2022/12/21 02:21:52;;;;;;;0.00;0.00;;;6.20;99.90;;;;;;5037631;28;20195;-64
2022/12/21 02:24:32;;;;;;;0.00;0.00;;;6.20;99.90;;;;;;5053083;28;20506;-63
2022/12/21 02:27:15;;;;;;;0.50;0.50;;;6.20;99.90;;;;;;5053216;28;20227;-61
2022/12/21 02:30:12;;;;;;;0.10;0.10;;;6.20;99.90;;;;;;5052877;28;20227;-61
2022/12/21 02:33:12;;;;;;;0.22;0.22;;;6.20;99.90;;;;;;5048387;28;20193;-61
2022/12/21 02:35:45;;;;;;;0.00;0.00;;;6.20;99.90;;;;;;5053058;28;20536;-60
2022/12/21 02:38:49;;;;;;;0.00;0.00;;;6.20;99.90;;;;;;5052331;28;20181;-61
2022/12/21 02:41:34;;;;;;;0.05;0.05;;;6.20;99.90;;;;;;5052602;28;20181;-61
2022/12/21 02:44:14;;;;;;;0.00;0.00;;;6.20;99.90;;;;;;5021697;28;20198;-61
2022/12/21 02:46:45;;;;;;;0.00;0.00;;;6.30;99.90;;;;;;5047427;28;20186;-61
2022/12/21 02:49:20;;;;;;;0.00;0.00;;;6.30;99.90;;;;;;5052372;28;20201;-61
2022/12/21 02:52:14;;;;;;;0.00;0.00;;;6.30;99.90;;;;;;5052780;28;20655;-61
2022/12/21 02:54:40;;;;;;;0.17;0.17;;;6.30;99.90;;;;;;5052570;28;20188;-61
2022/12/21 02:57:06;;;;;;;0.00;0.00;;;6.30;99.90;;;;;;5052193;28;20217;-61
2022/12/21 02:59:37;;;;;;;0.00;0.00;;;6.30;99.90;;;;;;5052404;28;20243;-61
2022/12/21 03:02:30;;;;;;;1.55;0.20;;;6.30;99.90;;;;;;5052582;28;20177;-61
2022/12/21 03:05:30;;;;;;;0.03;0.03;;;6.40;99.90;;;;;;5052294;28;20260;-61
2022/12/21 03:08:19;;;;;;;0.00;0.00;;;6.40;99.90;;;;;;5052093;28;20204;-61
2022/12/21 03:11:00;;;;;;;0.00;0.00;;;6.40;99.90;;;;;;5052345;28;20206;-61
2022/12/21 03:13:54;;;;;;;0.00;0.00;;;6.40;99.90;;;;;;5052305;28;20196;-61
2022/12/21 03:16:36;;;;;;;0.60;0.60;;;6.50;99.90;;;;;;5052158;28;20189;-61
2022/12/21 03:19:20;;;;;;;0.80;0.60;;;6.50;99.90;;;;;;5052043;28;20227;-62
2022/12/21 03:21:51;;;;;;;1.88;1.73;;;6.50;99.90;;;;;;5052204;28;20644;-60
2022/12/21 03:24:28;;;;;;;1.13;1.13;;;6.60;99.90;;;;;;5051829;28;20185;-61
2022/12/21 03:26:59;;;;;;;0.70;0.70;;;6.60;99.90;;;;;;5051925;28;20548;-61
2022/12/21 03:29:30;;;;;;;0.30;0.30;;;6.60;99.90;;;;;;5052142;28;20295;-60
2022/12/21 03:32:03;;;;;;;0.55;0.50;;;6.60;99.90;;;;;;5051938;28;20589;-61
2022/12/21 03:34:39;;;;;;;0.00;0.00;;;6.70;99.90;;;;;;5052344;28;20170;-61
2022/12/21 03:37:18;;;;;;;0.20;0.20;;;6.70;99.90;;;;;;5050781;28;20275;-61
2022/12/21 03:39:48;;;;;;;0.73;0.73;;;6.70;99.90;;;;;;5051979;28;20639;-61
2022/12/21 03:42:27;;;;;;;0.98;0.98;;;6.70;99.90;;;;;;5051662;28;20197;-61
2022/12/21 03:44:58;;;;;;;0.10;0.10;;;6.70;99.90;;;;;;5051786;28;20193;-61
2022/12/21 03:47:33;;;;;;;0.20;0.20;;;6.70;99.90;;;;;;5052029;28;20197;-61
2022/12/21 03:50:03;;;;;;;0.10;0.10;;;6.70;99.90;;;;;;5050885;28;20212;-61
2022/12/21 03:52:43;;;;;;;0.40;0.40;;;6.70;99.90;;;;;;5051709;28;20177;-61
2022/12/21 03:55:15;;;;;;;0.20;0.20;;;6.80;99.90;;;;;;5051870;28;20472;-61
2022/12/21 03:57:41;;;;;;;0.80;0.50;;;6.80;99.90;;;;;;5050708;28;20209;-61
2022/12/21 04:00:10;;;;;;;0.00;0.00;;;6.80;99.90;;;;;;5046284;28;20256;-61
2022/12/21 04:02:59;;;;;;;0.00;0.00;;;6.80;99.90;;;;;;5051438;28;20525;-61
2022/12/21 04:05:30;;;;;;;0.20;0.20;;;6.90;99.90;;;;;;5050734;28;20184;-60
2022/12/21 04:07:56;;;;;;;0.38;0.38;;;6.90;99.90;;;;;;5051393;28;20212;-61
2022/12/21 04:10:23;;;;;;;0.10;0.10;;;6.90;99.90;;;;;;5055015;28;20255;-61
2022/12/21 04:12:48;;;;;;;0.00;0.00;;;7.00;99.90;;;;;;5054636;28;20708;-61
2022/12/21 04:15:17;;;;;;;0.00;0.00;;;7.00;99.90;;;;;;5050564;28;20213;-61
2022/12/21 04:17:45;;;;;;;0.10;0.10;;;7.00;99.90;;;;;;5043548;28;20190;-62
2022/12/21 04:20:14;;;;;;;0.10;0.10;;;7.00;99.90;;;;;;5054460;28;20269;-62
2022/12/21 04:28:27;;;;;;;0.00;0.00;;;7.10;99.90;;;;;;5054938;28;20184;-60
2022/12/21 04:30:53;;;;;;;0.05;0.05;;;7.10;99.90;;;;;;5054290;28;20358;-61
2022/12/21 04:33:20;;;;;;;0.00;0.00;;;7.10;99.90;;;;;;5055022;28;20700;-59
2022/12/21 04:38:34;;;;;;;0.00;0.00;;;7.10;99.90;;;;;;5055162;28;20246;-63
2022/12/21 04:40:59;;;;;;;0.05;0.05;;;7.10;99.90;;;;;;5054774;28;20390;-57
2022/12/21 04:43:26;;;;;;;0.00;0.00;;;7.10;99.90;;;;;;5054466;28;20718;-59
2022/12/21 04:46:01;;;;;;;0.08;0.08;;;7.10;99.90;;;;;;5054392;28;20219;-58
2022/12/21 04:48:27;;;;;;;0.00;0.00;;;7.10;99.90;;;;;;5054582;28;20184;-56
2022/12/21 04:50:52;;;;;;;0.00;0.00;;;7.10;99.90;;;;;;5053742;28;20753;-59
2022/12/21 04:53:18;;;;;;;0.00;0.00;;;7.00;99.90;;;;;;5054420;28;20720;-57
2022/12/21 04:55:45;;;;;;;0.00;0.00;;;7.00;99.90;;;;;;5054050;28;20684;-60
2022/12/21 04:58:11;;;;;;;0.30;0.30;;;7.00;99.90;;;;;;5052040;28;20201;-57
2022/12/21 05:00:36;;;;;;;0.00;0.00;;;7.00;99.90;;;;;;5061785;28;20342;-58
2022/12/21 05:03:02;;;;;;;0.00;0.00;;;7.00;99.90;;;;;;5054157;28;20181;-58
2022/12/21 05:05:28;;;;;;;0.10;0.10;;;7.00;99.90;;;;;;5053972;28;20190;-58
2022/12/21 05:07:54;;;;;;;0.00;0.00;;;7.00;99.90;;;;;;5055344;28;20181;-57
2022/12/21 05:10:20;;;;;;;0.30;0.30;;;7.00;99.90;;;;;;5053787;28;20691;-57
2022/12/21 05:12:45;;;;;;;0.00;0.00;;;7.00;99.90;;;;;;5053596;28;20228;-58
2022/12/21 05:15:13;;;;;;;0.00;0.00;;;7.00;99.90;;;;;;5053851;28;20519;-58
2022/12/21 05:17:41;;;;;;;0.00;0.00;;;7.00;99.90;;;;;;5054460;28;20174;-58
2022/12/21 05:20:07;;;;;;;0.10;0.10;;;7.00;99.90;;;;;;5054331;28;20204;-58
2022/12/21 05:22:32;;;;;;;0.00;0.00;;;7.00;99.90;;;;;;5054057;28;20173;-58
2022/12/21 05:24:58;;;;;;;0.03;0.03;;;7.00;99.90;;;;;;5054284;28;20182;-58
2022/12/21 05:27:24;;;;;;;0.00;0.00;;;7.00;99.90;;;;;;5054460;28;20223;-58
2022/12/21 05:29:49;;;;;;;0.03;0.03;;;7.00;99.90;;;;;;5054342;28;20217;-58
2022/12/21 05:32:15;;;;;;;0.28;0.25;;;7.00;99.90;;;;;;5054155;28;20628;-58
2022/12/21 05:34:41;;;;;;;0.20;0.20;;;6.90;99.90;;;;;;5054243;28;20177;-58
2022/12/21 05:37:07;;;;;;;0.05;0.05;;;6.90;99.90;;;;;;5053850;28;20536;-58
2022/12/21 05:39:34;;;;;;;0.00;0.00;;;6.90;99.90;;;;;;5054026;28;20181;-58
2022/12/21 05:41:59;;;;;;;0.55;0.55;;;6.90;99.90;;;;;;5054078;28;20181;-58
2022/12/21 05:44:25;;;;;;;0.00;0.00;;;6.90;99.90;;;;;;5054126;28;20178;-58
2022/12/21 05:46:50;;;;;;;0.10;0.10;;;6.90;99.90;;;;;;5053860;28;20169;-60
2022/12/21 05:49:16;;;;;;;0.00;0.00;;;6.90;99.90;;;;;;5053859;28;20216;-59
2022/12/21 05:51:42;;;;;;;0.28;0.28;;;6.90;99.90;;;;;;5054002;28;20238;-59
2022/12/21 05:54:07;;;;;;;0.05;0.05;;;7.00;99.90;;;;;;5053676;28;20211;-59
2022/12/21 05:56:35;;;;;;;0.00;0.00;;;7.00;99.90;;;;;;5053847;28;20196;-58
2022/12/21 05:59:00;;;;;;;0.30;0.30;;;7.00;99.90;;;;;;5053778;28;20177;-59
2022/12/21 06:01:26;;;;;;;0.00;0.00;;;7.00;99.90;;;;;;5053722;28;20177;-59
2022/12/21 06:03:51;;;;;;;0.25;0.25;;;7.00;99.90;;;;;;5053616;28;20182;-59
2022/12/21 06:06:18;;;;;;;0.08;0.08;;;7.00;99.90;;;;;;5053814;28;20178;-59
2022/12/21 06:08:44;;;;;;;0.25;0.25;;;7.00;99.90;;;;;;5053650;28;20173;-59
2022/12/21 06:11:18;;;;;;;0.00;0.00;;;6.90;99.90;;;;;;5054518;28;20213;-59
2022/12/21 06:13:44;;;;;;;0.20;0.20;;;6.90;99.90;;;;;;5073413;28;20194;-60
2022/12/21 06:16:18;;;;;;;0.00;0.00;;;6.90;99.90;;;;;;5060640;28;20579;-59
2022/12/21 06:18:44;;;;;;;0.00;0.00;;;6.90;99.90;;;;;;5053464;28;20632;-59
2022/12/21 06:21:11;;;;;;;0.10;0.10;;;6.90;99.90;;;;;;5053034;28;20786;-59
2022/12/21 06:23:38;;;;;;;0.00;0.00;;;7.00;99.90;;;;;;5053340;28;20173;-59
2022/12/21 06:26:05;;;;;;;0.00;0.00;;;6.90;99.90;;;;;;5053160;28;20768;-59
2022/12/21 06:28:31;;;;;;;0.25;0.20;;;7.00;99.90;;;;;;5053251;28;20225;-59
2022/12/21 06:31:03;;;;;;;0.00;0.00;;;7.00;99.90;;;;;;5051145;28;20235;-59
2022/12/21 06:33:28;;;;;;;0.20;0.20;;;6.90;99.90;;;;;;5053317;28;20526;-59
2022/12/21 06:35:57;;;;;;;0.10;0.10;;;7.00;99.90;;;;;;5052950;28;20169;-60
2022/12/21 06:38:23;;;;;;;0.00;0.00;;;6.90;99.90;;;;;;5053233;28;20218;-59
2022/12/21 06:40:57;;;;;;;0.25;0.25;;;6.90;99.90;;;;;;5052812;28;20173;-59
2022/12/21 06:43:23;;;;;;;0.00;0.00;;;6.90;99.90;;;;;;5051730;28;20264;-59
2022/12/21 06:45:56;;;;;;;0.00;0.00;;;6.90;99.90;;;;;;5053016;28;20161;-59
2022/12/21 06:48:23;;;;;;;0.00;0.00;;;6.90;99.90;;;;;;5052866;28;20188;-59
2022/12/21 06:50:54;;;;;;;0.10;0.10;;;6.90;99.90;;;;;;5052867;28;20209;-59
2022/12/21 06:53:21;;;;;;;0.10;0.10;;;6.90;99.90;;;;;;5052674;28;20170;-60
2022/12/21 06:55:47;;;;;;;0.00;0.00;;;6.90;99.90;;;;;;5052837;28;20209;-60
2022/12/21 06:58:13;;;;;;;0.05;0.05;;;6.90;99.90;;;;;;5051347;28;20208;-59
2022/12/21 07:00:39;;;;;;;0.00;0.00;;;6.90;99.90;;;;;;5052750;28;20174;-59
2022/12/21 07:03:04;;;;;;;0.10;0.10;;;7.00;99.90;;;;;;5052605;28;20170;-59
2022/12/21 07:05:31;;;;;;;0.00;0.00;;;7.00;99.90;;;;;;5052528;28;20181;-60
2022/12/21 07:07:56;;;;;;;1.38;0.20;;;7.10;99.90;;;;;;5052410;28;20655;-59
2022/12/21 07:10:22;;;;;;;0.00;0.00;;;7.10;99.90;;;;;;5051245;28;20217;-60
2022/12/21 07:12:47;;;;;;;0.00;0.00;;;7.10;99.90;;;;;;5052309;28;20226;-59
2022/12/21 07:15:13;;;;;;;0.00;0.00;;;7.10;99.90;;;;;;5052204;28;20239;-59
2022/12/21 07:17:38;;;;;;;0.10;0.10;;;7.10;99.90;;;;;;5057191;28;20255;-59
2022/12/21 07:20:04;;;;;;;0.15;0.15;;;7.10;99.90;;;;;;5055911;28;20204;-59
2022/12/21 07:22:30;;;;;;;0.15;0.10;;;7.10;99.90;;;;;;5052389;28;20181;-60
2022/12/21 07:24:55;;;;;;;0.52;0.52;;;7.10;99.90;;;;;;5052080;28;20235;-60
2022/12/21 07:27:21;;;;;;;0.05;0.05;;;7.10;99.90;;;;;;5052286;28;20208;-59
2022/12/21 07:29:46;;;;;;;0.00;0.00;;;7.00;99.90;;;;;;5052281;28;20572;-59
2022/12/21 07:32:12;;;;;;;0.22;0.22;;;7.00;99.90;;;;;;5051986;28;20692;-60
2022/12/21 07:34:37;;;;;;;0.08;0.08;;;7.00;99.90;;;;;;5052215;28;20184;-60
2022/12/21 07:37:03;;;;;;;0.00;0.00;;;7.00;99.90;;;;;;5052239;28;20251;-60
2022/12/21 07:39:28;;;;;;;0.10;0.10;;;7.00;99.90;;;;;;5052076;28;20656;-59
2022/12/21 07:41:54;;;;;;;0.75;0.20;;;7.00;99.90;;;;;;5051760;28;20173;-60
2022/12/21 07:44:19;;;;;;;0.55;0.55;;;7.00;99.90;;;;;;5051671;28;20166;-59
2022/12/21 07:46:45;;;;;;;0.15;0.15;;;7.00;99.90;;;;;;5052080;28;20184;-59
2022/12/21 07:49:10;;;;;;;0.05;0.05;;;7.10;99.90;;;;;;5051907;28;20205;-59
2022/12/21 07:51:36;;;;;;;0.08;0.08;;;7.10;99.90;;;;;;5052044;28;20192;-60
2022/12/21 07:54:01;;;;;;;0.10;0.10;;;7.10;99.90;;;;;;5051701;28;20173;-59
2022/12/21 07:56:27;;;;;;;0.38;0.20;;;7.20;99.90;;;;;;5051961;28;20179;-59
2022/12/21 07:58:52;;;;;;;0.17;0.17;;;7.20;99.90;;;;;;5051769;28;20668;-60
2022/12/21 08:01:18;;;;;;;0.03;0.03;;;7.30;99.90;;;;;;5051882;28;20177;-60
2022/12/21 08:03:45;;;;;;;0.00;0.00;;;7.30;99.90;;;;;;5051939;28;20173;-60
2022/12/21 08:06:11;;;;;;;0.00;0.00;;;7.30;99.90;;;;;;5051739;28;20276;-60
2022/12/21 08:08:38;;;;;;;0.38;0.38;;;7.30;99.90;;;;;;5051780;28;20256;-60
2022/12/21 08:11:04;;;;;;;0.10;0.10;;;7.30;99.90;;;;;;5051419;28;20248;-62
2022/12/21 08:13:30;;;;;;;0.20;0.20;;;7.30;99.90;;;;;;5051945;28;20184;-60
2022/12/21 08:16:04;;;;;;;0.08;0.08;;;7.30;99.90;;;;;;5051654;28;20181;-63
2022/12/21 08:18:30;;;;;;;0.60;0.60;;;7.30;99.90;;;;;;5051764;28;20261;-60
2022/12/21 08:20:56;;;;;;;0.17;0.17;;;7.30;99.90;;;;;;5051650;28;20177;-60
2022/12/21 08:23:22;;;;;;;0.10;0.10;;;7.40;99.90;;;;;;5051546;28;20184;-60
2022/12/21 08:25:47;;;;;;;0.30;0.30;;;7.40;99.90;;;;;;5051678;28;20256;-60
2022/12/21 08:28:13;;;;;;;0.38;0.38;;;7.40;99.90;;;;;;5051535;28;20178;-61
2022/12/21 08:30:39;;;;;;;0.00;0.00;;;7.40;99.90;;;;;;5049907;28;20224;-59
2022/12/21 08:33:04;;;;;;;0.40;0.40;;;7.40;99.90;;;;;;5051166;28;20224;-62
2022/12/21 08:35:30;;;;;;;0.08;0.08;;;7.50;99.90;;;;;;5050399;28;20190;-60
2022/12/21 08:37:56;;;;;;;0.00;0.00;;;7.50;99.90;;;;;;5051353;28;20181;-61
2022/12/21 08:40:21;;;;;;;0.00;0.00;;;7.50;99.90;;;;;;5066789;28;20188;-62
2022/12/21 08:42:47;;;;;;;1.40;1.30;;;7.50;99.90;;;;;;5051251;28;20181;-59
2022/12/21 08:45:12;;;;;;;0.40;0.40;;;7.50;99.90;;;;;;5050911;28;20594;-60
2022/12/21 08:47:39;;;;;;;0.13;0.10;;;7.50;99.90;;;;;;5051068;28;20174;-61
2022/12/21 08:50:05;;;;;;;0.30;0.30;;;7.50;99.90;;;;;;5050946;28;20213;-62
2022/12/21 08:52:31;;;;;;;0.05;0.03;;;7.50;99.90;;;;;;5050906;28;20177;-62
2022/12/21 08:54:57;;;;;;;0.10;0.10;;;7.50;99.90;;;;;;5053562;28;20185;-60
2022/12/21 08:57:23;;;;;;;0.75;0.75;;;7.50;99.90;;;;;;5054639;28;20269;-61
2022/12/21 08:59:48;;;;;;;0.13;0.13;;;7.50;99.90;;;;;;5054840;28;20185;-60
2022/12/21 09:02:14;;;;;;;0.10;0.10;;;7.50;99.90;;;;;;5054544;28;20204;-60
2022/12/21 09:04:39;;;;;;;0.40;0.40;;;7.40;99.90;;;;;;5054331;28;20515;-60
2022/12/21 09:07:06;;;;;;;0.35;0.35;;;7.40;99.90;;;;;;5054294;28;20188;-60
2022/12/21 09:09:32;;;;;;;0.00;0.00;;;7.40;99.90;;;;;;5054304;28;20236;-60
2022/12/21 09:11:58;;;;;;;0.20;0.20;;;7.50;99.90;;;;;;5053799;28;20237;-61
2022/12/21 09:14:25;;;;;;;0.10;0.10;;;7.50;99.90;;;;;;5054240;28;20219;-60
2022/12/21 09:16:51;;;;;;;0.20;0.20;;;7.60;99.90;;;;;;5053597;28;20181;-61
2022/12/21 09:19:17;;;;;;;0.52;0.52;;;7.70;99.90;;;;;;5054256;28;20173;-60
2022/12/21 09:21:42;;;;;;;0.20;0.20;;;7.80;99.90;;;;;;5054190;28;20184;-60
2022/12/21 09:24:08;;;;;;;0.52;0.52;;;7.80;99.90;;;;;;5054150;28;20173;-60
2022/12/21 09:26:34;;;;;;;0.28;0.28;;;7.80;99.90;;;;;;5053957;28;20247;-60
2022/12/21 09:28:59;;;;;;;0.03;0.03;;;7.90;99.90;;;;;;5053494;28;20180;-63
2022/12/21 09:31:25;;;;;;;0.00;0.00;;;7.90;99.90;;;;;;5054072;28;20184;-62
2022/12/21 09:33:53;;;;;;;0.00;0.00;;;7.90;99.90;;;;;;5054089;28;20706;-64
2022/12/21 09:36:19;;;;;;;0.05;0.05;;;8.00;99.90;;;;;;5054160;28;20181;-60
2022/12/21 09:38:45;;;;;;;0.15;0.15;;;8.00;99.90;;;;;;5053883;28;20180;-63
2022/12/21 09:41:28;;;;;;;0.08;0.08;;;8.00;99.90;;;;;;5053438;28;20238;-64
2022/12/21 09:44:27;;;;;;;0.13;0.13;;;8.00;99.90;;;;;;5053709;28;20212;-60
2022/12/21 09:46:57;;;;;;;1.42;1.33;;;8.10;99.90;;;;;;5053288;28;20219;-66
2022/12/21 09:49:34;;;;;;;0.00;0.00;;;8.10;99.90;;;;;;5053687;28;20204;-64
2022/12/21 09:52:02;;;;;;;0.00;0.00;;;8.10;99.90;;;;;;5053757;28;20566;-63
2022/12/21 09:54:42;;;;;;;0.32;0.32;;;8.10;99.90;;;;;;5053707;28;20263;-62
2022/12/21 09:57:12;;;;;;;0.15;0.15;;;8.20;99.90;;;;;;5053240;28;20173;-64
2022/12/21 09:59:37;;;;;;;0.00;0.00;;;8.20;99.90;;;;;;5053662;28;20644;-61
2022/12/21 10:02:21;;;;;;;0.00;0.00;;;8.20;99.90;;;;;;5053726;28;20183;-63
2022/12/21 10:05:19;;;;;;;0.10;0.10;;;8.30;99.90;;;;;;5053298;28;20272;-60
2022/12/21 10:08:16;;;;;;;0.20;0.20;;;8.40;99.90;;;;;;5039867;28;20213;-62
2022/12/21 10:11:11;;;;;;;0.13;0.13;;;8.40;99.90;;;;;;5053171;28;20233;-62
2022/12/21 10:14:00;;;;;;;0.25;0.25;;;8.30;99.90;;;;;;5053150;28;20708;-61
2022/12/21 10:16:45;;;;;;;0.52;0.38;;;8.30;99.90;;;;;;5056673;28;20189;-60
2022/12/21 10:19:34;;;;;;;0.15;0.15;;;8.30;99.90;;;;;;5062870;28;20189;-62
2022/12/21 10:22:33;;;;;;;0.03;0.03;;;8.30;99.90;;;;;;5053345;28;20178;-60
2022/12/21 10:25:03;;;;;;;0.10;0.10;;;8.40;99.90;;;;;;5052915;28;20186;-61
2022/12/21 10:27:41;;;;;;;0.00;0.00;;;8.50;99.90;;;;;;5066048;28;20247;-59
2022/12/21 10:30:15;;;;;;;0.17;0.17;;;8.60;99.90;;;;;;5052775;28;20212;-61
2022/12/21 10:32:44;;;;;;;0.00;0.00;;;8.70;99.90;;;;;;5053200;28;20200;-61
2022/12/21 10:35:27;;;;;;;0.50;0.50;;;8.70;99.90;;;;;;5052672;28;20642;-61
2022/12/21 10:37:54;;;;;;;0.30;0.30;;;8.80;99.90;;;;;;5052686;28;20177;-62
2022/12/21 10:40:24;;;;;;;0.60;0.52;;;8.80;99.90;;;;;;5052901;28;20618;-62
2022/12/21 10:42:51;;;;;;;0.00;0.00;;;8.90;99.90;;;;;;5052938;28;20531;-61
2022/12/21 10:45:20;;;;;;;0.30;0.30;;;8.90;99.90;;;;;;5052821;28;20571;-61
2022/12/21 10:47:46;;;;;;;0.32;0.32;;;9.00;99.90;;;;;;5043675;28;20181;-61
2022/12/21 10:50:30;;;;;;;0.10;0.10;;;9.00;99.90;;;;;;5052194;28;20262;-61
2022/12/21 10:52:58;;;;;;;0.40;0.40;;;9.00;99.90;;;;;;5050515;28;20816;-61
2022/12/21 10:55:26;;;;;;;0.08;0.08;;;9.10;99.90;;;;;;5052765;28;20185;-61
2022/12/21 10:58:01;;;;;;;0.20;0.20;;;9.10;99.90;;;;;;5052528;28;20169;-61
2022/12/21 11:00:32;;;;;;;0.68;0.68;;;9.20;99.90;;;;;;5060596;28;20207;-61
2022/12/21 11:03:00;;;;;;;0.13;0.13;;;9.20;99.90;;;;;;5050974;28;20216;-61
2022/12/21 11:05:38;;;;;;;0.20;0.20;;;9.20;99.90;;;;;;5051616;28;20216;-61
2022/12/21 11:08:13;;;;;;;0.03;0.03;;;9.30;99.90;;;;;;5052183;28;20271;-61
2022/12/21 11:10:41;;;;;;;0.05;0.05;;;9.30;99.90;;;;;;5052299;28;20219;-60
2022/12/21 11:13:07;;;;;;;1.38;1.27;;;9.40;99.90;;;;;;5052050;28;20283;-61
2022/12/21 11:15:33;;;;;;;0.17;0.17;;;9.40;99.90;;;;;;5051858;28;20544;-61
2022/12/21 11:17:59;;;;;;;1.08;0.73;;;9.40;99.90;;;;;;5052068;28;20261;-61
2022/12/21 11:20:26;;;;;;;0.40;0.40;;;9.30;99.90;;;;;;5052037;28;20648;-61
2022/12/21 11:22:56;;;;;;;0.10;0.10;;;9.30;99.90;;;;;;5051220;28;20260;-60
2022/12/21 11:25:26;;;;;;;0.22;0.22;;;9.30;99.90;;;;;;5052250;28;20185;-60
2022/12/21 11:27:59;;;;;;;0.15;0.15;;;9.30;99.90;;;;;;5051758;28;20216;-61
2022/12/21 11:30:31;;;;;;;0.57;0.30;;;9.30;99.90;;;;;;5051616;28;20256;-61
2022/12/21 11:32:59;;;;;;;0.43;0.43;;;9.40;99.90;;;;;;5052102;28;20174;-61
2022/12/21 11:35:30;;;;;;;0.30;0.30;;;9.50;99.90;;;;;;5052152;28;20181;-60
2022/12/21 11:38:15;;;;;;;0.65;0.65;;;9.60;99.90;;;;;;5051880;28;20504;-60
2022/12/21 11:41:24;;;;;;;0.30;0.30;;;9.70;99.90;;;;;;5052096;28;20173;-60
2022/12/21 11:43:51;;;;;;;0.10;0.10;;;9.80;99.90;;;;;;5051727;28;20212;-61
2022/12/21 11:46:43;;;;;;;0.10;0.10;;;10.00;99.90;;;;;;5051524;28;20185;-61
2022/12/21 11:49:09;;;;;;;0.00;0.00;;;10.10;99.90;;;;;;5049712;28;20181;-62
2022/12/21 11:52:03;;;;;;;0.20;0.20;;;10.20;99.90;;;;;;5051503;28;20192;-61
2022/12/21 11:54:53;;;;;;;0.00;0.00;;;10.30;99.90;;;;;;5050884;28;20196;-61
2022/12/21 11:57:43;;;;;;;0.00;0.00;;;10.40;99.90;;;;;;5050124;28;20178;-63
2022/12/21 12:00:12;;;;;;;0.00;0.00;;;10.40;99.90;;;;;;5051947;28;20178;-61
2022/12/21 12:03:05;;;;;;;0.00;0.00;;;10.40;99.90;;;;;;5051919;28;20188;-61
2022/12/21 12:05:43;;;;;;;0.00;0.00;;;10.40;99.90;;;;;;5051893;28;20283;-61
2022/12/21 12:08:17;;;;;;;0.00;0.00;;;10.50;99.90;;;;;;5051808;28;20177;-61
2022/12/21 12:11:13;;;;;;;0.00;0.00;;;10.60;99.90;;;;;;5051819;28;20216;-61
2022/12/21 12:14:17;;;;;;;0.10;0.10;;;10.60;99.90;;;;;;5048181;28;20340;-61
2022/12/21 12:17:14;;;;;;;0.00;0.00;;;10.70;99.90;;;;;;5051757;28;20625;-61
2022/12/21 12:20:03;;;;;;;0.00;0.00;;;10.80;99.90;;;;;;5051015;28;20239;-61
2022/12/21 12:23:04;;;;;;;0.00;0.00;;;10.90;99.90;;;;;;5037483;28;20273;-61
2022/12/21 12:26:15;;;;;;;0.00;0.00;;;10.80;99.90;;;;;;5047523;28;20197;-61
2022/12/21 12:28:53;;;;;;;0.10;0.10;;;10.80;99.90;;;;;;5041089;28;20181;-61
2022/12/21 12:31:45;;;;;;;0.00;0.00;;;10.90;99.90;;;;;;5055313;28;20216;-61
2022/12/21 12:34:29;;;;;;;0.00;0.00;;;11.00;99.90;;;;;;5053997;28;20235;-60
2022/12/21 12:37:06;;;;;;;0.00;0.00;;;11.00;99.90;;;;;;5055000;28;20219;-60
2022/12/21 12:39:40;;;;;;;0.00;0.00;;;11.10;99.90;;;;;;5055379;28;20698;-61
2022/12/21 12:42:31;;;;;;;0.00;0.00;;;11.10;99.90;;;;;;5055225;28;20185;-61
2022/12/21 12:45:08;;;;;;;0.03;0.03;;;11.10;99.90;;;;;;5055207;28;20262;-61
2022/12/21 12:48:04;;;;;;;0.00;0.00;;;11.20;99.90;;;;;;5053991;28;20662;-61
2022/12/21 12:50:39;;;;;;;0.10;0.10;;;11.20;99.90;;;;;;5035347;28;20272;-60
2022/12/21 12:53:28;;;;;;;0.00;0.00;;;11.20;99.90;;;;;;5046796;28;20173;-61
2022/12/21 12:56:02;;;;;;;0.35;0.35;;;11.30;99.90;;;;;;5054953;28;20178;-61
2022/12/21 12:58:53;;;;;;;0.00;0.00;;;11.30;99.90;;;;;;5054380;28;20181;-61
2022/12/21 13:01:25;;;;;;;0.00;0.00;;;11.20;99.90;;;;;;5054790;28;20568;-61
2022/12/21 13:03:59;;;;;;;0.00;0.00;;;11.20;99.90;;;;;;5054362;28;20731;-62
2022/12/21 13:07:00;;;;;;;0.05;0.05;;;11.10;99.90;;;;;;5055014;28;20173;-61
2022/12/21 13:10:02;;;;;;;0.00;0.00;;;11.10;99.90;;;;;;5054476;28;20205;-61
2022/12/21 13:12:42;;;;;;;0.00;0.00;;;11.10;99.90;;;;;;5054621;28;20312;-62
2022/12/21 13:15:45;;;;;;;0.00;0.00;;;11.10;99.90;;;;;;5062284;28;20187;-60
2022/12/21 13:18:51;;;;;;;0.00;0.00;;;11.10;99.90;;;;;;5050972;28;20288;-61
2022/12/21 13:21:20;;;;;;;0.00;0.00;;;11.20;99.90;;;;;;5017892;28;20185;-61
2022/12/21 13:23:55;;;;;;;0.00;0.00;;;11.20;99.90;;;;;;5053319;28;20182;-61
2022/12/21 13:26:56;;;;;;;0.00;0.00;;;11.30;99.90;;;;;;5054291;28;20231;-61
2022/12/21 13:29:34;;;;;;;0.00;0.00;;;11.40;99.90;;;;;;5021014;28;20533;-61
2022/12/21 13:32:17;;;;;;;0.00;0.00;;;11.60;99.90;;;;;;5053611;28;20185;-61
2022/12/21 13:35:00;;;;;;;0.00;0.00;;;11.70;99.90;;;;;;5053265;28;20188;-60